sensor_id;sensor_type;location;lat;lon;timestamp;pressure;altitude;pressure_sealevel;temperature;humidity
62725;BME280;49026;52.600;4.694;2023-06-10T00:01:49;101593.31;;;17.92;55.50
62725;BME280;49026;52.600;4.694;2023-06-10T00:04:15;101594.34;;;17.90;55.35
62725;BME280;49026;52.600;4.694;2023-06-10T00:06:42;101595.28;;;17.89;55.19
62725;BME280;49026;52.600;4.694;2023-06-10T00:09:09;101602.50;;;17.87;55.21
62725;BME280;49026;52.600;4.694;2023-06-10T00:11:37;101605.22;;;17.85;55.31
62725;BME280;49026;52.600;4.694;2023-06-10T00:14:03;101598.31;;;17.83;55.48
62725;BME280;49026;52.600;4.694;2023-06-10T00:16:31;101598.38;;;17.81;54.39
62725;BME280;49026;52.600;4.694;2023-06-10T00:18:56;101604.72;;;17.78;53.86
62725;BME280;49026;52.600;4.694;2023-06-10T00:21:27;101604.06;;;17.75;55.50
62725;BME280;49026;52.600;4.694;2023-06-10T00:23:52;101599.59;;;17.75;54.98
62725;BME280;49026;52.600;4.694;2023-06-10T00:26:19;101601.47;;;17.73;54.23
62725;BME280;49026;52.600;4.694;2023-06-10T00:28:45;101605.28;;;17.69;55.40
62725;BME280;49026;52.600;4.694;2023-06-10T00:31:11;101610.38;;;17.72;54.65
62725;BME280;49026;52.600;4.694;2023-06-10T00:33:36;101601.31;;;17.76;54.46
62725;BME280;49026;52.600;4.694;2023-06-10T00:36:01;101603.88;;;17.78;55.13
62725;BME280;49026;52.600;4.694;2023-06-10T00:38:27;101593.91;;;17.82;54.01
62725;BME280;49026;52.600;4.694;2023-06-10T00:40:52;101609.03;;;17.81;54.48
62725;BME280;49026;52.600;4.694;2023-06-10T00:43:17;101608.66;;;17.87;54.36
62725;BME280;49026;52.600;4.694;2023-06-10T00:45:43;101597.88;;;17.90;54.68
62725;BME280;49026;52.600;4.694;2023-06-10T00:48:08;101607.66;;;17.90;56.16
62725;BME280;49026;52.600;4.694;2023-06-10T00:50:37;101598.44;;;17.95;54.43
62725;BME280;49026;52.600;4.694;2023-06-10T00:53:04;101602.16;;;17.93;53.47
62725;BME280;49026;52.600;4.694;2023-06-10T00:55:30;101606.00;;;17.87;54.48
62725;BME280;49026;52.600;4.694;2023-06-10T00:57:56;101605.75;;;17.92;54.45
62725;BME280;49026;52.600;4.694;2023-06-10T01:00:22;101604.72;;;17.94;54.15
62725;BME280;49026;52.600;4.694;2023-06-10T01:02:48;101602.91;;;17.95;54.28
62725;BME280;49026;52.600;4.694;2023-06-10T01:05:14;101596.66;;;17.96;53.86
62725;BME280;49026;52.600;4.694;2023-06-10T01:07:44;101600.16;;;17.96;53.76
62725;BME280;49026;52.600;4.694;2023-06-10T01:10:28;101608.22;;;17.95;53.71
62725;BME280;49026;52.600;4.694;2023-06-10T01:12:59;101602.91;;;17.95;53.85
62725;BME280;49026;52.600;4.694;2023-06-10T01:15:28;101604.34;;;18.01;54.03
62725;BME280;49026;52.600;4.694;2023-06-10T01:17:59;101611.47;;;18.00;54.21
62725;BME280;49026;52.600;4.694;2023-06-10T01:20:27;101605.41;;;17.98;54.11
62725;BME280;49026;52.600;4.694;2023-06-10T01:22:59;101606.25;;;17.99;53.97
62725;BME280;49026;52.600;4.694;2023-06-10T01:25:26;101613.09;;;18.03;53.89
62725;BME280;49026;52.600;4.694;2023-06-10T01:30:42;101616.63;;;18.03;54.79
62725;BME280;49026;52.600;4.694;2023-06-10T01:33:10;101609.41;;;18.05;54.66
62725;BME280;49026;52.600;4.694;2023-06-10T01:35:38;101611.28;;;18.03;54.35
62725;BME280;49026;52.600;4.694;2023-06-10T01:38:04;101605.22;;;18.01;53.73
62725;BME280;49026;52.600;4.694;2023-06-10T01:40:36;101608.06;;;17.98;53.83
62725;BME280;49026;52.600;4.694;2023-06-10T01:43:01;101601.19;;;17.94;54.49
62725;BME280;49026;52.600;4.694;2023-06-10T01:45:29;101601.19;;;17.94;54.49
62725;BME280;49026;52.600;4.694;2023-06-10T01:47:54;101609.06;;;17.95;53.95
62725;BME280;49026;52.600;4.694;2023-06-10T01:50:22;101612.78;;;17.93;53.89
62725;BME280;49026;52.600;4.694;2023-06-10T01:52:47;101612.22;;;17.88;54.35
62725;BME280;49026;52.600;4.694;2023-06-10T01:55:13;101606.06;;;17.86;54.71
62725;BME280;49026;52.600;4.694;2023-06-10T01:57:38;101611.59;;;17.83;54.44
62725;BME280;49026;52.600;4.694;2023-06-10T02:00:04;101618.78;;;17.81;54.05
62725;BME280;49026;52.600;4.694;2023-06-10T02:02:29;101609.38;;;17.75;53.89
62725;BME280;49026;52.600;4.694;2023-06-10T02:04:56;101614.34;;;17.65;53.81
62725;BME280;49026;52.600;4.694;2023-06-10T02:07:22;101612.84;;;17.61;53.81
62725;BME280;49026;52.600;4.694;2023-06-10T02:09:47;101619.34;;;17.55;54.14
62725;BME280;49026;52.600;4.694;2023-06-10T02:12:12;101616.84;;;17.52;54.33
62725;BME280;49026;52.600;4.694;2023-06-10T02:14:42;101615.25;;;17.50;54.41
62725;BME280;49026;52.600;4.694;2023-06-10T02:17:10;101618.25;;;17.44;54.54
62725;BME280;49026;52.600;4.694;2023-06-10T02:19:37;101618.31;;;17.42;59.29
62725;BME280;49026;52.600;4.694;2023-06-10T02:22:07;101615.75;;;17.40;55.51
62725;BME280;49026;52.600;4.694;2023-06-10T02:24:32;101615.59;;;17.44;55.15
62725;BME280;49026;52.600;4.694;2023-06-10T02:26:57;101622.72;;;17.43;55.66
62725;BME280;49026;52.600;4.694;2023-06-10T02:29:28;101614.66;;;17.45;55.00
62725;BME280;49026;52.600;4.694;2023-06-10T02:31:53;101623.63;;;17.42;55.17
62725;BME280;49026;52.600;4.694;2023-06-10T02:34:20;101621.06;;;17.40;54.85
62725;BME280;49026;52.600;4.694;2023-06-10T02:36:46;101625.53;;;17.40;54.78
62725;BME280;49026;52.600;4.694;2023-06-10T02:39:14;101616.81;;;17.38;55.10
62725;BME280;49026;52.600;4.694;2023-06-10T02:41:39;101620.56;;;17.34;55.41
62725;BME280;49026;52.600;4.694;2023-06-10T02:44:04;101622.53;;;17.30;55.17
62725;BME280;49026;52.600;4.694;2023-06-10T02:46:30;101612.78;;;17.31;55.58
62725;BME280;49026;52.600;4.694;2023-06-10T02:48:59;101609.09;;;17.33;55.20
62725;BME280;49026;52.600;4.694;2023-06-10T02:51:25;101613.72;;;17.30;55.34
62725;BME280;49026;52.600;4.694;2023-06-10T02:53:50;101612.94;;;17.28;55.02
62725;BME280;49026;52.600;4.694;2023-06-10T02:56:18;101608.56;;;17.27;57.16
62725;BME280;49026;52.600;4.694;2023-06-10T02:58:44;101619.88;;;17.30;56.13
62725;BME280;49026;52.600;4.694;2023-06-10T03:01:12;101608.31;;;17.31;55.66
62725;BME280;49026;52.600;4.694;2023-06-10T03:03:37;101612.00;;;17.29;56.35
62725;BME280;49026;52.600;4.694;2023-06-10T03:06:06;101612.88;;;17.29;56.59
62725;BME280;49026;52.600;4.694;2023-06-10T03:08:31;101615.44;;;17.31;55.43
62725;BME280;49026;52.600;4.694;2023-06-10T03:10:56;101615.69;;;17.26;57.20
62725;BME280;49026;52.600;4.694;2023-06-10T03:13:23;101616.78;;;17.22;56.50
62725;BME280;49026;52.600;4.694;2023-06-10T03:15:48;101616.03;;;17.20;57.24
62725;BME280;49026;52.600;4.694;2023-06-10T03:18:16;101619.59;;;17.19;56.73
62725;BME280;49026;52.600;4.694;2023-06-10T03:20:44;101622.53;;;17.14;56.91
62725;BME280;49026;52.600;4.694;2023-06-10T03:23:09;101620.06;;;17.11;56.89
62725;BME280;49026;52.600;4.694;2023-06-10T03:25:37;101621.06;;;17.09;56.12
62725;BME280;49026;52.600;4.694;2023-06-10T03:28:03;101623.13;;;17.03;55.92
62725;BME280;49026;52.600;4.694;2023-06-10T03:30:30;101621.59;;;16.99;57.04
62725;BME280;49026;52.600;4.694;2023-06-10T03:32:58;101628.78;;;16.97;56.97
62725;BME280;49026;52.600;4.694;2023-06-10T03:35:23;101620.91;;;16.96;57.30
62725;BME280;49026;52.600;4.694;2023-06-10T03:37:48;101624.41;;;16.96;56.19
62725;BME280;49026;52.600;4.694;2023-06-10T03:40:14;101629.88;;;16.93;57.37
62725;BME280;49026;52.600;4.694;2023-06-10T03:42:41;101629.03;;;16.93;57.95
62725;BME280;49026;52.600;4.694;2023-06-10T03:45:09;101635.19;;;16.93;58.12
62725;BME280;49026;52.600;4.694;2023-06-10T03:47:35;101633.38;;;16.94;57.47
62725;BME280;49026;52.600;4.694;2023-06-10T03:50:04;101629.13;;;16.91;60.93
62725;BME280;49026;52.600;4.694;2023-06-10T03:52:30;101633.22;;;16.97;58.40
62725;BME280;49026;52.600;4.694;2023-06-10T03:54:57;101638.44;;;16.98;58.79
62725;BME280;49026;52.600;4.694;2023-06-10T03:57:23;101632.13;;;17.01;58.46
62725;BME280;49026;52.600;4.694;2023-06-10T03:59:48;101629.38;;;17.02;58.58
62725;BME280;49026;52.600;4.694;2023-06-10T04:02:13;101640.63;;;17.08;59.29
62725;BME280;49026;52.600;4.694;2023-06-10T04:04:41;101641.72;;;17.19;58.95
62725;BME280;49026;52.600;4.694;2023-06-10T04:07:06;101635.47;;;17.36;58.44
62725;BME280;49026;52.600;4.694;2023-06-10T04:09:33;101636.50;;;17.50;58.66
62725;BME280;49026;52.600;4.694;2023-06-10T04:11:58;101643.50;;;17.67;57.84
62725;BME280;49026;52.600;4.694;2023-06-10T04:14:24;101646.31;;;17.80;58.25
62725;BME280;49026;52.600;4.694;2023-06-10T04:16:49;101650.19;;;17.90;58.32
62725;BME280;49026;52.600;4.694;2023-06-10T04:19:15;101654.59;;;18.05;57.97
62725;BME280;49026;52.600;4.694;2023-06-10T04:21:41;101648.56;;;18.18;57.32
62725;BME280;49026;52.600;4.694;2023-06-10T04:24:07;101647.06;;;18.28;59.32
62725;BME280;49026;52.600;4.694;2023-06-10T04:26:32;101653.56;;;18.38;58.48
62725;BME280;49026;52.600;4.694;2023-06-10T04:28:58;101654.44;;;18.53;57.31
62725;BME280;49026;52.600;4.694;2023-06-10T04:31:31;101655.50;;;18.65;57.95
62725;BME280;49026;52.600;4.694;2023-06-10T04:33:57;101653.03;;;18.76;57.70
62725;BME280;49026;52.600;4.694;2023-06-10T04:36:25;101660.19;;;18.90;57.24
62725;BME280;49026;52.600;4.694;2023-06-10T04:38:50;101654.72;;;19.06;57.24
62725;BME280;49026;52.600;4.694;2023-06-10T04:41:17;101656.53;;;19.20;57.04
62725;BME280;49026;52.600;4.694;2023-06-10T04:43:44;101660.97;;;19.34;56.54
62725;BME280;49026;52.600;4.694;2023-06-10T04:46:10;101657.63;;;19.44;56.63
62725;BME280;49026;52.600;4.694;2023-06-10T04:48:35;101659.78;;;19.52;56.50
62725;BME280;49026;52.600;4.694;2023-06-10T04:51:03;101656.63;;;19.60;56.59
62725;BME280;49026;52.600;4.694;2023-06-10T04:53:28;101655.16;;;19.69;56.48
62725;BME280;49026;52.600;4.694;2023-06-10T04:55:53;101658.31;;;19.75;56.44
62725;BME280;49026;52.600;4.694;2023-06-10T04:58:19;101668.06;;;19.89;56.32
62725;BME280;49026;52.600;4.694;2023-06-10T05:00:44;101666.28;;;20.03;55.83
62725;BME280;49026;52.600;4.694;2023-06-10T05:03:12;101657.88;;;20.09;55.83
62725;BME280;49026;52.600;4.694;2023-06-10T05:05:39;101657.88;;;20.09;55.92
62725;BME280;49026;52.600;4.694;2023-06-10T05:08:07;101660.25;;;20.13;55.75
62725;BME280;49026;52.600;4.694;2023-06-10T05:10:33;101666.75;;;20.22;55.50
62725;BME280;49026;52.600;4.694;2023-06-10T05:12:59;101670.72;;;20.29;55.69
62725;BME280;49026;52.600;4.694;2023-06-10T05:15:24;101663.34;;;20.33;55.28
62725;BME280;49026;52.600;4.694;2023-06-10T05:17:50;101659.63;;;20.35;55.99
62725;BME280;49026;52.600;4.694;2023-06-10T05:20:15;101659.44;;;20.39;55.34
62725;BME280;49026;52.600;4.694;2023-06-10T05:22:40;101664.88;;;20.37;55.33
62725;BME280;49026;52.600;4.694;2023-06-10T05:25:08;101657.72;;;20.38;55.39
62725;BME280;49026;52.600;4.694;2023-06-10T05:27:34;101664.34;;;20.45;55.20
62725;BME280;49026;52.600;4.694;2023-06-10T05:29:59;101665.53;;;20.53;54.99
62725;BME280;49026;52.600;4.694;2023-06-10T05:32:26;101669.41;;;20.75;54.93
62725;BME280;49026;52.600;4.694;2023-06-10T05:34:52;101663.09;;;20.89;54.33
62725;BME280;49026;52.600;4.694;2023-06-10T05:37:17;101665.13;;;20.98;54.49
62725;BME280;49026;52.600;4.694;2023-06-10T05:39:47;101663.78;;;21.17;54.26
62725;BME280;49026;52.600;4.694;2023-06-10T05:42:13;101666.75;;;21.25;54.05
62725;BME280;49026;52.600;4.694;2023-06-10T05:44:38;101670.47;;;21.35;53.85
62725;BME280;49026;52.600;4.694;2023-06-10T05:47:04;101668.94;;;21.57;53.62
62725;BME280;49026;52.600;4.694;2023-06-10T05:49:29;101671.66;;;21.68;53.34
62725;BME280;49026;52.600;4.694;2023-06-10T05:51:55;101669.34;;;21.63;52.85
62725;BME280;49026;52.600;4.694;2023-06-10T05:54:21;101676.59;;;21.61;53.07
62725;BME280;49026;52.600;4.694;2023-06-10T05:56:46;101684.97;;;21.57;53.10
62725;BME280;49026;52.600;4.694;2023-06-10T05:59:12;101683.47;;;21.53;53.12
62725;BME280;49026;52.600;4.694;2023-06-10T06:01:39;101674.63;;;21.52;53.10
62725;BME280;49026;52.600;4.694;2023-06-10T06:04:05;101671.84;;;21.54;52.94
62725;BME280;49026;52.600;4.694;2023-06-10T06:06:30;101674.50;;;21.41;53.04
62725;BME280;49026;52.600;4.694;2023-06-10T06:08:58;101676.25;;;21.29;53.30
62725;BME280;49026;52.600;4.694;2023-06-10T06:11:26;101673.72;;;21.15;53.54
62725;BME280;49026;52.600;4.694;2023-06-10T06:13:53;101669.78;;;21.07;53.85
62725;BME280;49026;52.600;4.694;2023-06-10T06:16:19;101674.19;;;21.08;53.92
62725;BME280;49026;52.600;4.694;2023-06-10T06:18:44;101675.97;;;21.08;53.86
62725;BME280;49026;52.600;4.694;2023-06-10T06:21:09;101674.19;;;21.08;54.25
62725;BME280;49026;52.600;4.694;2023-06-10T06:23:42;101676.22;;;21.05;54.55
62725;BME280;49026;52.600;4.694;2023-06-10T06:26:07;101674.59;;;21.02;54.67
62725;BME280;49026;52.600;4.694;2023-06-10T06:28:36;101681.88;;;21.00;54.66
62725;BME280;49026;52.600;4.694;2023-06-10T06:31:01;101680.59;;;20.93;55.01
62725;BME280;49026;52.600;4.694;2023-06-10T06:33:27;101673.41;;;21.06;55.00
62725;BME280;49026;52.600;4.694;2023-06-10T06:35:52;101683.88;;;21.22;55.04
62725;BME280;49026;52.600;4.694;2023-06-10T06:38:17;101684.38;;;21.27;54.85
62725;BME280;49026;52.600;4.694;2023-06-10T06:40:43;101687.38;;;21.23;55.08
62725;BME280;49026;52.600;4.694;2023-06-10T06:43:08;101682.91;;;21.23;55.16
62725;BME280;49026;52.600;4.694;2023-06-10T06:45:35;101687.28;;;21.24;55.29
62725;BME280;49026;52.600;4.694;2023-06-10T06:48:01;101685.69;;;21.22;55.11
62725;BME280;49026;52.600;4.694;2023-06-10T06:50:28;101684.19;;;21.18;55.25
62725;BME280;49026;52.600;4.694;2023-06-10T06:52:54;101682.03;;;21.23;55.57
62725;BME280;49026;52.600;4.694;2023-06-10T06:55:19;101691.28;;;21.43;55.60
62725;BME280;49026;52.600;4.694;2023-06-10T06:57:47;101694.69;;;21.58;55.50
62725;BME280;49026;52.600;4.694;2023-06-10T07:00:12;101696.94;;;21.64;54.95
62725;BME280;49026;52.600;4.694;2023-06-10T07:02:38;101691.56;;;21.64;54.94
62725;BME280;49026;52.600;4.694;2023-06-10T07:05:03;101685.41;;;21.75;55.48
62725;BME280;49026;52.600;4.694;2023-06-10T07:07:29;101693.84;;;21.81;54.94
62725;BME280;49026;52.600;4.694;2023-06-10T07:09:56;101691.13;;;21.70;54.21
62725;BME280;49026;52.600;4.694;2023-06-10T07:12:24;101696.00;;;21.76;54.94
62725;BME280;49026;52.600;4.694;2023-06-10T07:14:53;101696.19;;;21.86;54.97
62725;BME280;49026;52.600;4.694;2023-06-10T07:17:19;101694.84;;;21.92;54.99
62725;BME280;49026;52.600;4.694;2023-06-10T07:19:45;101693.97;;;22.04;54.83
62725;BME280;49026;52.600;4.694;2023-06-10T07:22:13;101692.78;;;22.19;55.41
62725;BME280;49026;52.600;4.694;2023-06-10T07:24:38;101692.41;;;22.48;55.35
62725;BME280;49026;52.600;4.694;2023-06-10T07:27:04;101691.25;;;22.64;54.37
62725;BME280;49026;52.600;4.694;2023-06-10T07:29:30;101695.59;;;22.65;54.43
62725;BME280;49026;52.600;4.694;2023-06-10T07:31:56;101689.75;;;22.60;54.52
62725;BME280;49026;52.600;4.694;2023-06-10T07:34:21;101691.25;;;22.64;54.33
62725;BME280;49026;52.600;4.694;2023-06-10T07:36:46;101691.34;;;22.73;54.30
62725;BME280;49026;52.600;4.694;2023-06-10T07:39:11;101697.94;;;22.92;55.00
62725;BME280;49026;52.600;4.694;2023-06-10T07:41:39;101702.97;;;23.19;54.93
62725;BME280;49026;52.600;4.694;2023-06-10T07:44:04;101698.47;;;23.31;54.70
62725;BME280;49026;52.600;4.694;2023-06-10T07:46:30;101692.72;;;23.36;53.28
62725;BME280;49026;52.600;4.694;2023-06-10T07:48:57;101701.84;;;23.44;53.71
62725;BME280;49026;52.600;4.694;2023-06-10T07:51:23;101701.84;;;23.56;54.01
62725;BME280;49026;52.600;4.694;2023-06-10T07:53:48;101716.28;;;23.76;53.90
62725;BME280;49026;52.600;4.694;2023-06-10T07:56:13;101702.94;;;23.97;54.32
62725;BME280;49026;52.600;4.694;2023-06-10T07:58:39;101704.50;;;24.11;53.65
62725;BME280;49026;52.600;4.694;2023-06-10T08:01:04;101712.72;;;24.19;53.25
62725;BME280;49026;52.600;4.694;2023-06-10T08:03:30;101713.88;;;24.37;54.49
62725;BME280;49026;52.600;4.694;2023-06-10T08:05:55;101713.47;;;24.42;52.75
62725;BME280;49026;52.600;4.694;2023-06-10T08:08:20;101709.63;;;24.56;52.74
62725;BME280;49026;52.600;4.694;2023-06-10T08:10:46;101704.72;;;24.61;51.48
62725;BME280;49026;52.600;4.694;2023-06-10T08:13:14;101703.66;;;24.73;52.97
62725;BME280;49026;52.600;4.694;2023-06-10T08:15:40;101705.88;;;24.89;51.84
62725;BME280;49026;52.600;4.694;2023-06-10T08:18:05;101705.81;;;24.80;50.93
62725;BME280;49026;52.600;4.694;2023-06-10T08:20:30;101704.16;;;24.88;52.45
62725;BME280;49026;52.600;4.694;2023-06-10T08:22:55;101707.41;;;25.23;53.58
62725;BME280;49026;52.600;4.694;2023-06-10T08:25:21;101701.25;;;25.42;50.47
62725;BME280;49026;52.600;4.694;2023-06-10T08:27:47;101704.69;;;25.54;51.07
62725;BME280;49026;52.600;4.694;2023-06-10T08:30:12;101704.69;;;25.54;50.47
62725;BME280;49026;52.600;4.694;2023-06-10T08:32:38;101703.97;;;25.51;50.69
62725;BME280;49026;52.600;4.694;2023-06-10T08:35:06;101703.44;;;25.58;49.89
62725;BME280;49026;52.600;4.694;2023-06-10T08:37:31;101694.78;;;25.64;49.52
62725;BME280;49026;52.600;4.694;2023-06-10T08:39:56;101699.34;;;25.73;50.12
62725;BME280;49026;52.600;4.694;2023-06-10T08:42:28;101691.00;;;26.05;43.26
62725;BME280;49026;52.600;4.694;2023-06-10T08:44:57;101703.03;;;26.21;48.81
62725;BME280;49026;52.600;4.694;2023-06-10T08:47:24;101700.63;;;26.28;48.80
62725;BME280;49026;52.600;4.694;2023-06-10T08:49:52;101709.56;;;26.09;41.82
62725;BME280;49026;52.600;4.694;2023-06-10T08:52:19;101703.31;;;26.28;49.35
62725;BME280;49026;52.600;4.694;2023-06-10T08:54:59;101696.78;;;26.40;46.62
62725;BME280;49026;52.600;4.694;2023-06-10T08:57:27;101701.88;;;26.43;47.82
62725;BME280;49026;52.600;4.694;2023-06-10T08:59:57;101710.81;;;26.34;47.22
62725;BME280;49026;52.600;4.694;2023-06-10T09:02:23;101704.00;;;26.39;47.82
62725;BME280;49026;52.600;4.694;2023-06-10T09:04:49;101709.50;;;26.57;48.18
62725;BME280;49026;52.600;4.694;2023-06-10T09:07:18;101716.56;;;26.78;48.11
62725;BME280;49026;52.600;4.694;2023-06-10T09:09:44;101702.03;;;26.98;48.38
62725;BME280;49026;52.600;4.694;2023-06-10T09:12:10;101696.22;;;27.21;47.95
62725;BME280;49026;52.600;4.694;2023-06-10T09:14:38;101702.00;;;27.36;48.78
62725;BME280;49026;52.600;4.694;2023-06-10T09:17:03;101709.00;;;27.75;49.80
62725;BME280;49026;52.600;4.694;2023-06-10T09:19:30;101706.28;;;27.75;47.54
62725;BME280;49026;52.600;4.694;2023-06-10T09:21:55;101708.50;;;27.61;47.46
62725;BME280;49026;52.600;4.694;2023-06-10T09:24:22;101705.28;;;27.58;46.64
62725;BME280;49026;52.600;4.694;2023-06-10T09:26:48;101704.06;;;27.70;46.75
62725;BME280;49026;52.600;4.694;2023-06-10T09:29:13;101718.44;;;27.88;46.60
62725;BME280;49026;52.600;4.694;2023-06-10T09:31:39;101710.25;;;27.98;46.15
62725;BME280;49026;52.600;4.694;2023-06-10T09:34:13;101712.78;;;28.18;46.96
62725;BME280;49026;52.600;4.694;2023-06-10T09:36:42;101710.03;;;28.54;47.70
62725;BME280;49026;52.600;4.694;2023-06-10T09:39:16;101700.72;;;28.74;45.84
62725;BME280;49026;52.600;4.694;2023-06-10T09:41:43;101713.88;;;28.69;45.35
62725;BME280;49026;52.600;4.694;2023-06-10T09:44:22;101704.78;;;28.52;40.82
62725;BME280;49026;52.600;4.694;2023-06-10T09:46:50;101711.47;;;28.66;45.24
62725;BME280;49026;52.600;4.694;2023-06-10T09:49:19;101714.19;;;28.66;44.44
62725;BME280;49026;52.600;4.694;2023-06-10T09:51:56;101704.22;;;28.67;43.69
62725;BME280;49026;52.600;4.694;2023-06-10T09:54:21;101715.19;;;28.65;44.71
62725;BME280;49026;52.600;4.694;2023-06-10T09:56:48;101708.78;;;28.66;45.02
62725;BME280;49026;52.600;4.694;2023-06-10T09:59:14;101713.13;;;28.59;43.35
62725;BME280;49026;52.600;4.694;2023-06-10T10:01:40;101710.28;;;28.60;44.32
62725;BME280;49026;52.600;4.694;2023-06-10T10:04:05;101707.38;;;28.88;43.87
62725;BME280;49026;52.600;4.694;2023-06-10T10:06:31;101702.88;;;29.05;44.16
62725;BME280;49026;52.600;4.694;2023-06-10T10:08:56;101710.53;;;29.10;43.21
62725;BME280;49026;52.600;4.694;2023-06-10T10:11:22;101708.44;;;29.30;43.58
62725;BME280;49026;52.600;4.694;2023-06-10T10:13:49;101709.84;;;29.42;43.37
62725;BME280;49026;52.600;4.694;2023-06-10T10:16:20;101709.69;;;29.44;42.29
62725;BME280;49026;52.600;4.694;2023-06-10T10:18:54;101708.78;;;29.35;35.43
62725;BME280;49026;52.600;4.694;2023-06-10T10:21:27;101708.13;;;29.41;42.48
62725;BME280;49026;52.600;4.694;2023-06-10T10:24:18;101702.59;;;29.51;41.73
62725;BME280;49026;52.600;4.694;2023-06-10T10:26:47;101706.16;;;29.60;42.71
62725;BME280;49026;52.600;4.694;2023-06-10T10:31:42;101700.25;;;29.72;42.33
62725;BME280;49026;52.600;4.694;2023-06-10T10:34:16;101704.19;;;29.86;42.02
62725;BME280;49026;52.600;4.694;2023-06-10T10:36:47;101708.75;;;29.78;41.98
62725;BME280;49026;52.600;4.694;2023-06-10T10:39:13;101699.38;;;29.55;32.25
62725;BME280;49026;52.600;4.694;2023-06-10T10:41:39;101700.91;;;29.58;41.40
62725;BME280;49026;52.600;4.694;2023-06-10T10:44:10;101693.97;;;29.64;41.61
62725;BME280;49026;52.600;4.694;2023-06-10T10:46:44;101693.69;;;29.91;37.29
62725;BME280;49026;52.600;4.694;2023-06-10T10:49:12;101692.16;;;30.14;40.62
62725;BME280;49026;52.600;4.694;2023-06-10T10:51:44;101690.16;;;29.91;31.09
62725;BME280;49026;52.600;4.694;2023-06-10T10:54:28;101690.06;;;29.58;40.17
62725;BME280;49026;52.600;4.694;2023-06-10T10:59:57;101690.81;;;30.09;36.51
62725;BME280;49026;52.600;4.694;2023-06-10T11:05:06;101684.03;;;30.38;39.71
62725;BME280;49026;52.600;4.694;2023-06-10T11:07:33;101676.72;;;30.47;39.48
62725;BME280;49026;52.600;4.694;2023-06-10T11:10:10;101682.44;;;30.69;37.56
62725;BME280;49026;52.600;4.694;2023-06-10T11:12:50;101684.28;;;30.84;37.41
62725;BME280;49026;52.600;4.694;2023-06-10T11:15:22;101691.06;;;30.72;32.47
62725;BME280;49026;52.600;4.694;2023-06-10T11:18:11;101680.28;;;30.56;33.22
62725;BME280;49026;52.600;4.694;2023-06-10T11:31:24;101672.19;;;30.87;38.28
62725;BME280;49026;52.600;4.694;2023-06-10T11:33:53;101674.50;;;31.15;37.48
62725;BME280;49026;52.600;4.694;2023-06-10T11:36:21;101672.31;;;31.10;36.50
62725;BME280;49026;52.600;4.694;2023-06-10T11:38:46;101671.41;;;30.78;36.46
62725;BME280;49026;52.600;4.694;2023-06-10T11:41:13;101667.97;;;30.93;37.29
62725;BME280;49026;52.600;4.694;2023-06-10T11:43:46;101668.50;;;31.28;37.54
62725;BME280;49026;52.600;4.694;2023-06-10T11:46:14;101657.78;;;31.34;37.27
62725;BME280;49026;52.600;4.694;2023-06-10T11:48:53;101658.91;;;31.40;37.31
62725;BME280;49026;52.600;4.694;2023-06-10T11:51:19;101652.88;;;31.30;36.68
62725;BME280;49026;52.600;4.694;2023-06-10T11:53:49;101649.44;;;31.36;36.64
62725;BME280;49026;52.600;4.694;2023-06-10T11:56:27;101655.31;;;31.48;30.17
62725;BME280;49026;52.600;4.694;2023-06-10T11:59:01;101664.69;;;31.68;36.76
62725;BME280;49026;52.600;4.694;2023-06-10T12:01:32;101664.63;;;31.76;36.15
62725;BME280;49026;52.600;4.694;2023-06-10T12:04:08;101664.22;;;31.88;36.65
62725;BME280;49026;52.600;4.694;2023-06-10T12:06:47;101657.25;;;32.08;35.71
62725;BME280;49026;52.600;4.694;2023-06-10T12:09:14;101648.19;;;32.31;36.38
62725;BME280;49026;52.600;4.694;2023-06-10T12:11:39;101653.31;;;32.11;35.12
62725;BME280;49026;52.600;4.694;2023-06-10T12:14:05;101657.91;;;31.87;35.32
62725;BME280;49026;52.600;4.694;2023-06-10T12:16:30;101657.19;;;31.93;35.41
62725;BME280;49026;52.600;4.694;2023-06-10T12:19:04;101630.72;;;32.10;35.42
62725;BME280;49026;52.600;4.694;2023-06-10T12:21:32;101651.94;;;31.92;35.10
62725;BME280;49026;52.600;4.694;2023-06-10T12:26:40;101643.41;;;31.49;33.43
62725;BME280;49026;52.600;4.694;2023-06-10T12:29:17;101636.59;;;31.30;30.23
62725;BME280;49026;52.600;4.694;2023-06-10T12:32:00;101639.34;;;31.53;35.12
62725;BME280;49026;52.600;4.694;2023-06-10T12:34:37;101642.66;;;31.63;33.32
62725;BME280;49026;52.600;4.694;2023-06-10T12:37:10;101643.47;;;31.40;34.36
62725;BME280;49026;52.600;4.694;2023-06-10T12:39:39;101635.44;;;31.47;34.88
62725;BME280;49026;52.600;4.694;2023-06-10T12:42:05;101638.25;;;31.62;35.25
62725;BME280;49026;52.600;4.694;2023-06-10T12:44:34;101632.94;;;31.69;28.50
62725;BME280;49026;52.600;4.694;2023-06-10T12:47:00;101634.69;;;31.62;35.06
62725;BME280;49026;52.600;4.694;2023-06-10T12:49:26;101635.75;;;31.52;35.74
62725;BME280;49026;52.600;4.694;2023-06-10T12:51:54;101633.47;;;31.41;34.82
62725;BME280;49026;52.600;4.694;2023-06-10T12:54:19;101623.84;;;31.30;34.97
62725;BME280;49026;52.600;4.694;2023-06-10T12:56:45;101622.25;;;31.13;34.75
62725;BME280;49026;52.600;4.694;2023-06-10T12:59:10;101626.06;;;30.95;35.14
62725;BME280;49026;52.600;4.694;2023-06-10T13:01:37;101623.06;;;30.82;34.74
62725;BME280;49026;52.600;4.694;2023-06-10T13:04:05;101629.38;;;30.74;34.81
62725;BME280;49026;52.600;4.694;2023-06-10T13:06:31;101622.66;;;30.54;34.24
62725;BME280;49026;52.600;4.694;2023-06-10T13:08:58;101621.50;;;30.32;34.79
62725;BME280;49026;52.600;4.694;2023-06-10T13:11:23;101625.06;;;30.40;34.94
62725;BME280;49026;52.600;4.694;2023-06-10T13:13:50;101625.50;;;30.60;35.06
62725;BME280;49026;52.600;4.694;2023-06-10T13:16:18;101617.09;;;30.87;34.12